North Elizabeth, New Jersey
Current Conditions -  °F | °C
As of 10:51 AM on Saturday 25 Oct 2014 (Local Time) from KEWR Reporting Station
Few Clouds Few Clouds  
Wind Chill: 60°   Ceiling: Unl
Heat Index: 60°   Visibility: 10mi
Dew Point: 39°   Wind: 12mph
Humidity: 46%   Direction: 280°W
Pressure: 29.85"   Gusts: NA
Location:  40.6752°N, 74.2247°W
Report Text: KEWR 251451Z 28010KT 10SM FEW250 16/04 A2985 RMK AO2 SLP108 T01560039 58009
Loading
Personal Weather Stations






























Interactive Weather Map
Tropical Storm Tracking
New forecast layout! Learn more

10-Day Weather Forecast

Advertisements
Track Severe Weather on mobile